Time;durP1;ratioP1;P1;durP2;ratioP2;P2;SDS_P1;SDS_P2;PMS_P1;PMS_P2;Temp;Humidity;BMP_temperature;BMP_pressure;BME280_temperature;BME280_humidity;BME280_pressure;Samples;Min_cycle;Max_cycle;Signal;HPM_P1;HPM_P2
2022/10/16 00:02:17;;;;;;;20.23;12.80;;;14.10;99.90;;;;;;6143039;29;20311;-66
2022/10/16 00:05:23;;;;;;;19.85;12.20;;;14.00;99.90;;;;;;6142540;29;20307;-66
2022/10/16 00:08:28;;;;;;;18.08;12.05;;;14.00;99.90;;;;;;6137646;29;20343;-67
2022/10/16 00:11:36;;;;;;;16.42;10.60;;;14.00;99.90;;;;;;6119188;29;20295;-67
2022/10/16 00:14:43;;;;;;;14.18;10.30;;;13.90;99.90;;;;;;6119809;29;20272;-67
2022/10/16 00:17:48;;;;;;;14.30;10.35;;;13.90;99.90;;;;;;6118930;29;20460;-67
2022/10/16 00:20:55;;;;;;;12.57;10.30;;;14.00;99.90;;;;;;6118326;29;20592;-67
2022/10/16 00:24:08;;;;;;;15.63;10.65;;;13.90;99.90;;;;;;6119149;29;20273;-67
2022/10/16 00:27:13;;;;;;;15.40;11.30;;;14.00;99.90;;;;;;6118822;29;20303;-67
2022/10/16 00:30:18;;;;;;;14.27;10.95;;;14.00;99.90;;;;;;6119105;29;20287;-67
2022/10/16 00:33:23;;;;;;;14.82;11.20;;;14.00;99.90;;;;;;6117663;29;20479;-67
2022/10/16 00:36:30;;;;;;;16.92;10.90;;;14.00;99.90;;;;;;6118610;29;20295;-68
2022/10/16 00:39:35;;;;;;;13.32;11.23;;;14.00;99.90;;;;;;6118940;29;20273;-67
2022/10/16 00:42:41;;;;;;;14.43;11.25;;;13.90;99.90;;;;;;6118132;29;20344;-67
2022/10/16 00:45:45;;;;;;;14.88;11.23;;;14.00;99.90;;;;;;6118438;29;20275;-67
2022/10/16 00:48:55;;;;;;;16.98;11.93;;;13.90;99.90;;;;;;6118240;29;20287;-67
2022/10/16 00:52:02;;;;;;;19.58;11.75;;;14.00;99.90;;;;;;6117738;29;20316;-67
2022/10/16 00:55:08;;;;;;;18.75;11.82;;;13.90;99.90;;;;;;6118480;29;20275;-67
2022/10/16 00:58:13;;;;;;;20.25;12.85;;;13.90;99.90;;;;;;6117985;29;20304;-67
2022/10/16 01:05:47;;;;;;;17.55;11.73;;;13.90;99.90;;;;;;6111473;29;20306;-68
2022/10/16 01:09:12;;;;;;;17.70;12.27;;;13.70;99.90;;;;;;6094271;29;20287;-67
2022/10/16 01:12:24;;;;;;;16.35;12.02;;;13.80;99.90;;;;;;6094484;29;20301;-67
2022/10/16 01:15:33;;;;;;;15.27;11.50;;;13.80;99.90;;;;;;6094617;29;20556;-68
2022/10/16 01:18:46;;;;;;;17.20;10.75;;;13.70;99.90;;;;;;6094075;29;20568;-67
2022/10/16 01:21:53;;;;;;;13.63;11.18;;;13.70;99.90;;;;;;6087154;29;20296;-66
2022/10/16 01:25:00;;;;;;;14.75;11.23;;;13.70;99.90;;;;;;6094507;29;20293;-66
2022/10/16 01:28:08;;;;;;;17.33;12.07;;;13.60;99.90;;;;;;6094000;29;20710;-66
2022/10/16 01:31:16;;;;;;;18.50;11.85;;;13.60;99.90;;;;;;6093389;29;20299;-67
2022/10/16 01:34:26;;;;;;;15.93;11.38;;;13.70;99.90;;;;;;6093922;29;20272;-67
2022/10/16 01:37:36;;;;;;;18.25;11.80;;;13.70;99.90;;;;;;6093726;29;20300;-67
2022/10/16 01:40:46;;;;;;;16.77;11.07;;;13.70;99.90;;;;;;6116799;29;20277;-67
2022/10/16 01:43:59;;;;;;;15.43;10.73;;;13.70;99.90;;;;;;6116695;29;20312;-67
2022/10/16 01:47:05;;;;;;;13.55;10.65;;;13.70;99.90;;;;;;6117019;29;20296;-67
2022/10/16 01:50:12;;;;;;;15.63;10.90;;;13.70;99.90;;;;;;6117178;29;20295;-68
2022/10/16 01:53:17;;;;;;;17.83;11.57;;;13.70;99.90;;;;;;6116721;29;20315;-68
2022/10/16 01:56:23;;;;;;;12.45;10.75;;;13.70;99.90;;;;;;6116814;29;20324;-68
2022/10/16 01:59:32;;;;;;;14.20;10.15;;;13.80;99.90;;;;;;6117057;29;20280;-67
2022/10/16 02:02:39;;;;;;;16.13;10.82;;;13.70;99.90;;;;;;6116577;29;20291;-67
2022/10/16 02:05:48;;;;;;;15.57;11.13;;;13.70;99.90;;;;;;6116447;29;20296;-67
2022/10/16 02:08:54;;;;;;;15.25;10.77;;;13.70;99.90;;;;;;6124684;29;20283;-67
2022/10/16 02:12:02;;;;;;;13.55;10.43;;;13.70;99.90;;;;;;6140348;29;20299;-67
2022/10/16 02:15:10;;;;;;;17.15;11.15;;;13.70;99.90;;;;;;6140721;29;20275;-67
2022/10/16 02:18:15;;;;;;;13.32;10.75;;;13.60;99.90;;;;;;6140021;29;20294;-67
2022/10/16 02:21:26;;;;;;;19.15;10.90;;;13.60;99.90;;;;;;6140015;29;20295;-67
2022/10/16 02:24:34;;;;;;;16.48;10.57;;;13.60;99.90;;;;;;6139968;29;20267;-67
2022/10/16 02:27:52;;;;;;;14.18;10.57;;;13.60;99.90;;;;;;6139793;29;20481;-67
2022/10/16 02:31:02;;;;;;;14.75;10.70;;;13.60;99.90;;;;;;6139311;29;20307;-67
2022/10/16 02:34:10;;;;;;;14.82;9.73;;;13.60;99.90;;;;;;6139715;29;20275;-67
2022/10/16 02:37:15;;;;;;;18.15;11.05;;;13.60;99.90;;;;;;6139743;29;20299;-67
2022/10/16 02:40:20;;;;;;;11.93;9.65;;;13.60;99.90;;;;;;6139825;29;20570;-67
2022/10/16 02:43:29;;;;;;;12.77;10.30;;;13.60;99.90;;;;;;6139985;29;20591;-67
2022/10/16 02:46:36;;;;;;;16.00;10.02;;;13.70;99.90;;;;;;6139248;29;20311;-68
2022/10/16 02:49:40;;;;;;;11.93;10.18;;;13.60;99.90;;;;;;6140094;29;20291;-68
2022/10/16 02:52:45;;;;;;;11.48;9.57;;;13.70;99.90;;;;;;6139451;29;20298;-67
2022/10/16 02:55:50;;;;;;;10.55;8.93;;;13.70;99.90;;;;;;6141355;29;20299;-67
2022/10/16 02:58:55;;;;;;;10.60;9.43;;;13.70;99.90;;;;;;6144829;29;20275;-67
2022/10/16 03:02:01;;;;;;;12.65;9.27;;;13.60;99.90;;;;;;6112737;29;20275;-67
2022/10/16 03:05:07;;;;;;;14.63;9.20;;;13.60;99.90;;;;;;6129285;29;20320;-67
2022/10/16 03:08:13;;;;;;;9.88;8.90;;;13.70;99.90;;;;;;6133830;29;20271;-67
2022/10/16 03:11:18;;;;;;;12.02;9.30;;;13.70;99.90;;;;;;6140401;29;20283;-68
2022/10/16 03:14:23;;;;;;;14.68;9.02;;;13.70;99.90;;;;;;6120473;29;20304;-68
2022/10/16 03:17:30;;;;;;;12.20;9.43;;;13.70;99.90;;;;;;6120565;29;20280;-68
2022/10/16 03:20:35;;;;;;;12.43;8.80;;;13.60;99.90;;;;;;6130672;29;20299;-68
2022/10/16 03:23:40;;;;;;;9.55;8.75;;;13.60;99.90;;;;;;6143873;29;20319;-68
2022/10/16 03:26:45;;;;;;;11.52;8.98;;;13.60;99.90;;;;;;6143946;29;20275;-68
2022/10/16 03:29:49;;;;;;;9.63;8.65;;;13.60;99.90;;;;;;6143697;29;20308;-67
2022/10/16 03:32:55;;;;;;;9.55;8.57;;;13.60;99.90;;;;;;6143790;29;20453;-67
2022/10/16 03:36:00;;;;;;;12.15;9.60;;;13.60;99.90;;;;;;6143800;29;20590;-67
2022/10/16 03:39:05;;;;;;;11.70;9.13;;;13.50;99.90;;;;;;6121877;29;20295;-68
2022/10/16 03:42:10;;;;;;;14.68;9.05;;;13.60;99.90;;;;;;6120313;29;20276;-68
2022/10/16 03:45:15;;;;;;;9.57;8.68;;;13.60;99.90;;;;;;6120211;29;20319;-68
2022/10/16 03:48:22;;;;;;;9.55;8.55;;;13.70;99.90;;;;;;6119503;29;20275;-68
2022/10/16 03:51:27;;;;;;;9.90;7.97;;;13.50;99.90;;;;;;6119590;29;20291;-66
2022/10/16 03:54:31;;;;;;;9.05;8.15;;;13.50;99.90;;;;;;6119735;29;20591;-68
2022/10/16 03:57:36;;;;;;;11.30;7.55;;;13.50;99.90;;;;;;6120047;29;20276;-66
2022/10/16 04:00:42;;;;;;;10.35;8.10;;;13.50;99.90;;;;;;6119290;29;20303;-66
2022/10/16 04:03:48;;;;;;;8.80;8.00;;;13.50;99.90;;;;;;6111607;29;20287;-66
2022/10/16 04:06:53;;;;;;;8.57;7.70;;;13.50;99.90;;;;;;6118619;29;20301;-67
2022/10/16 04:09:58;;;;;;;11.48;7.32;;;13.50;99.90;;;;;;6119116;29;20296;-67
2022/10/16 04:13:03;;;;;;;7.70;7.00;;;13.40;99.90;;;;;;6139268;29;20544;-68
2022/10/16 04:16:10;;;;;;;7.30;6.70;;;13.30;99.90;;;;;;6143038;29;20566;-67
2022/10/16 04:19:16;;;;;;;6.55;5.95;;;13.30;99.90;;;;;;6142770;29;20295;-67
2022/10/16 04:22:21;;;;;;;7.13;6.47;;;13.20;99.90;;;;;;6143174;29;20279;-68
2022/10/16 04:25:26;;;;;;;7.15;6.45;;;13.40;99.90;;;;;;6142433;29;20299;-67
2022/10/16 04:28:38;;;;;;;6.78;6.22;;;13.30;99.90;;;;;;6142543;29;20291;-67
2022/10/16 04:31:43;;;;;;;7.50;6.47;;;13.30;99.90;;;;;;6134988;29;20299;-67
2022/10/16 04:34:49;;;;;;;7.97;7.28;;;13.20;99.90;;;;;;6142100;29;20472;-67
2022/10/16 04:37:54;;;;;;;8.10;7.10;;;13.20;99.90;;;;;;6142256;29;20266;-67
2022/10/16 04:40:59;;;;;;;8.23;6.95;;;13.30;99.90;;;;;;6142012;29;20303;-67
2022/10/16 04:44:04;;;;;;;7.93;7.18;;;13.20;99.90;;;;;;6142255;29;20323;-67
2022/10/16 04:47:09;;;;;;;7.07;6.40;;;13.20;99.90;;;;;;6142488;29;20362;-67
2022/10/16 04:50:15;;;;;;;7.43;6.80;;;13.20;99.90;;;;;;6141835;29;20295;-67
2022/10/16 04:53:38;;;;;;;10.02;6.70;;;13.10;99.90;;;;;;6141929;29;20295;-67
2022/10/16 04:56:46;;;;;;;8.57;6.45;;;13.10;99.90;;;;;;6134587;29;20563;-67
2022/10/16 04:59:51;;;;;;;6.95;6.40;;;13.10;99.90;;;;;;6141706;29;20295;-67
2022/10/16 05:02:56;;;;;;;7.55;6.80;;;13.20;99.90;;;;;;6141852;29;20275;-67
2022/10/16 05:06:03;;;;;;;8.75;6.47;;;13.20;99.90;;;;;;6141217;29;20583;-67
2022/10/16 05:09:09;;;;;;;7.40;6.80;;;13.20;99.90;;;;;;6141316;29;20453;-67
2022/10/16 05:12:14;;;;;;;7.43;6.72;;;13.10;99.90;;;;;;6128235;29;20283;-67
2022/10/16 05:15:19;;;;;;;9.95;6.90;;;13.00;99.90;;;;;;6117665;29;20478;-67
2022/10/16 05:18:25;;;;;;;7.05;6.55;;;13.10;99.90;;;;;;6117178;29;20300;-67
2022/10/16 05:21:31;;;;;;;7.85;6.15;;;13.00;99.90;;;;;;6118092;29;20453;-67
2022/10/16 05:24:36;;;;;;;7.72;6.75;;;13.10;99.90;;;;;;6117655;29;20387;-67
2022/10/16 05:27:41;;;;;;;7.15;6.55;;;13.10;99.90;;;;;;6118066;29;20276;-67
2022/10/16 05:30:46;;;;;;;7.53;6.80;;;13.10;99.90;;;;;;6116992;29;20440;-67
2022/10/16 05:33:50;;;;;;;8.23;7.07;;;13.00;99.90;;;;;;6117499;29;20295;-67
2022/10/16 05:36:57;;;;;;;7.80;7.00;;;13.10;99.90;;;;;;6117234;29;20304;-67
2022/10/16 05:40:02;;;;;;;10.10;6.95;;;13.10;99.90;;;;;;6117321;29;20300;-67
2022/10/16 05:43:09;;;;;;;7.68;6.75;;;13.10;99.90;;;;;;6116583;29;20276;-67
2022/10/16 05:46:14;;;;;;;8.50;6.63;;;13.10;99.90;;;;;;6117421;29;20571;-67
2022/10/16 05:49:19;;;;;;;9.32;7.30;;;13.10;99.90;;;;;;6117422;29;20295;-67
2022/10/16 05:52:25;;;;;;;8.50;7.30;;;13.00;99.90;;;;;;6117494;29;20296;-67
2022/10/16 05:55:30;;;;;;;11.73;7.78;;;13.10;99.90;;;;;;6117208;29;20300;-67
2022/10/16 05:58:37;;;;;;;8.10;7.30;;;13.10;99.90;;;;;;6100038;29;20232;-67
2022/10/16 06:01:42;;;;;;;11.48;7.78;;;13.10;99.90;;;;;;6116720;29;20280;-68
2022/10/16 06:04:47;;;;;;;8.52;7.68;;;13.10;99.90;;;;;;6109369;29;20291;-67
2022/10/16 06:07:53;;;;;;;9.43;8.05;;;13.10;99.90;;;;;;6117370;29;20300;-67
2022/10/16 06:11:05;;;;;;;9.77;8.20;;;13.10;99.90;;;;;;6120233;29;20294;-67
2022/10/16 06:14:11;;;;;;;11.00;8.60;;;13.20;99.90;;;;;;6140038;29;20298;-67
2022/10/16 06:17:17;;;;;;;13.55;9.18;;;13.20;99.90;;;;;;6140447;29;20279;-67
2022/10/16 06:20:22;;;;;;;11.77;8.98;;;13.20;99.90;;;;;;6139897;29;20486;-67
2022/10/16 06:23:30;;;;;;;11.05;9.63;;;13.30;99.90;;;;;;6122923;29;20380;-67
2022/10/16 06:26:34;;;;;;;14.18;9.55;;;13.30;99.90;;;;;;6140595;29;20269;-67
2022/10/16 06:29:39;;;;;;;13.25;9.95;;;13.30;99.90;;;;;;6139416;29;20299;-67
2022/10/16 06:32:44;;;;;;;12.63;9.63;;;13.30;99.90;;;;;;6140402;29;20295;-67
2022/10/16 06:35:49;;;;;;;12.82;10.07;;;13.40;99.90;;;;;;6139496;29;20295;-67
2022/10/16 06:38:55;;;;;;;13.63;10.02;;;13.40;99.90;;;;;;6139776;29;20318;-67
2022/10/16 06:42:00;;;;;;;15.00;10.75;;;13.40;99.90;;;;;;6140471;29;20275;-67
2022/10/16 06:45:12;;;;;;;13.68;10.45;;;13.40;99.90;;;;;;6122613;29;20299;-68
2022/10/16 06:48:17;;;;;;;14.13;10.60;;;13.50;99.90;;;;;;6139348;29;20287;-67
2022/10/16 06:51:24;;;;;;;11.93;10.30;;;13.50;99.90;;;;;;6123119;29;20319;-67
2022/10/16 06:54:31;;;;;;;16.90;10.95;;;13.60;99.90;;;;;;6139387;29;20315;-67
2022/10/16 06:57:48;;;;;;;14.15;11.30;;;13.60;99.90;;;;;;6132845;29;20271;-67
2022/10/16 07:00:57;;;;;;;15.88;11.50;;;13.60;99.90;;;;;;6139686;29;20479;-67
2022/10/16 07:04:03;;;;;;;15.90;10.43;;;13.60;99.90;;;;;;6139534;29;21631;-68
2022/10/16 07:07:08;;;;;;;17.05;11.50;;;13.60;99.90;;;;;;6140115;29;20299;-67
2022/10/16 07:10:15;;;;;;;13.52;11.30;;;13.70;99.90;;;;;;6139635;29;20295;-68
2022/10/16 07:13:20;;;;;;;14.63;11.75;;;13.70;99.90;;;;;;6116834;29;20284;-67
2022/10/16 07:16:27;;;;;;;16.17;11.90;;;13.70;99.90;;;;;;6116182;29;20464;-67
2022/10/16 07:19:32;;;;;;;15.07;11.50;;;13.80;99.90;;;;;;6115935;29;20311;-67
2022/10/16 07:22:38;;;;;;;16.77;11.63;;;13.80;99.90;;;;;;6116180;29;20469;-67
2022/10/16 07:25:44;;;;;;;15.05;11.43;;;13.90;99.90;;;;;;6115553;29;20296;-67
2022/10/16 07:28:49;;;;;;;19.40;11.50;;;13.90;99.90;;;;;;6114277;29;20478;-68
2022/10/16 07:31:55;;;;;;;14.07;9.80;;;13.90;99.90;;;;;;6116142;29;20268;-67
2022/10/16 07:34:59;;;;;;;15.52;10.55;;;13.90;99.90;;;;;;6115482;29;20596;-67
2022/10/16 07:38:05;;;;;;;13.10;9.73;;;13.90;99.90;;;;;;6100776;29;20276;-68
2022/10/16 07:41:13;;;;;;;10.15;9.05;;;13.90;99.90;;;;;;6093457;29;20276;-67
2022/10/16 07:44:18;;;;;;;11.30;8.65;;;13.90;99.90;;;;;;6096114;29;20313;-67
2022/10/16 07:47:23;;;;;;;11.75;8.32;;;13.90;99.90;;;;;;6097008;29;20273;-68
2022/10/16 07:50:29;;;;;;;10.60;7.72;;;13.90;99.90;;;;;;6096110;29;20308;-68
2022/10/16 07:53:34;;;;;;;7.72;7.13;;;13.90;99.90;;;;;;6096193;29;20305;-68
2022/10/16 07:56:41;;;;;;;8.70;6.90;;;14.00;99.90;;;;;;6096220;29;20268;-68
2022/10/16 07:59:47;;;;;;;7.32;6.72;;;14.00;99.90;;;;;;6106319;29;20307;-68
2022/10/16 08:02:52;;;;;;;6.97;6.38;;;14.00;99.90;;;;;;6120050;29;20272;-66
2022/10/16 08:05:58;;;;;;;6.70;6.10;;;14.00;99.90;;;;;;6118935;29;20307;-68
2022/10/16 08:09:03;;;;;;;6.88;6.35;;;14.00;99.90;;;;;;6119439;29;20304;-67
2022/10/16 08:12:10;;;;;;;7.38;6.05;;;14.00;99.90;;;;;;6119803;29;20272;-68
2022/10/16 08:15:15;;;;;;;6.60;5.90;;;14.10;99.90;;;;;;6119246;29;20300;-68
2022/10/16 08:18:20;;;;;;;6.68;5.70;;;14.10;99.90;;;;;;6119000;29;20276;-68
2022/10/16 08:21:25;;;;;;;6.32;5.78;;;14.10;99.90;;;;;;6119220;29;20272;-68
2022/10/16 08:24:32;;;;;;;5.68;5.13;;;14.10;99.90;;;;;;6118848;29;20308;-68
2022/10/16 08:27:38;;;;;;;6.30;5.80;;;14.10;99.90;;;;;;6119493;29;20445;-68
2022/10/16 08:30:43;;;;;;;5.43;5.07;;;14.10;99.90;;;;;;6119016;29;20291;-69
2022/10/16 08:33:48;;;;;;;5.50;5.10;;;14.10;99.90;;;;;;6118450;29;20295;-68
2022/10/16 08:36:54;;;;;;;5.43;5.05;;;14.10;99.90;;;;;;6119202;29;20268;-68
2022/10/16 08:39:59;;;;;;;4.95;4.45;;;14.10;99.90;;;;;;6118504;29;20487;-68
2022/10/16 08:43:30;;;;;;;5.53;5.10;;;14.20;99.90;;;;;;6118489;29;20552;-68
2022/10/16 08:46:44;;;;;;;6.45;4.68;;;14.20;99.90;;;;;;6118706;29;20272;-68
2022/10/16 08:49:59;;;;;;;4.85;4.53;;;14.20;99.90;;;;;;6118075;29;20301;-68
2022/10/16 08:53:05;;;;;;;8.32;4.93;;;14.20;99.90;;;;;;6117713;29;20279;-68
2022/10/16 08:56:11;;;;;;;6.50;5.15;;;14.30;99.90;;;;;;6118377;29;20280;-68
2022/10/16 08:59:18;;;;;;;5.30;5.00;;;14.30;99.90;;;;;;6118394;29;20348;-67
2022/10/16 09:02:32;;;;;;;5.72;5.18;;;14.30;99.90;;;;;;6118190;29;20275;-68
2022/10/16 09:05:58;;;;;;;5.75;5.15;;;14.30;99.90;;;;;;6118100;29;20315;-67
2022/10/16 09:09:44;;;;;;;5.50;5.03;;;14.40;99.90;;;;;;6117656;29;20300;-68
2022/10/16 09:12:55;;;;;;;6.85;4.97;;;14.40;99.90;;;;;;6136608;29;20271;-68
2022/10/16 09:16:16;;;;;;;5.25;4.82;;;14.40;99.90;;;;;;6140080;29;20487;-68
2022/10/16 09:19:27;;;;;;;4.78;4.47;;;14.40;99.90;;;;;;6141201;29;20291;-68
2022/10/16 09:22:33;;;;;;;4.45;4.15;;;14.30;99.90;;;;;;6141835;29;20555;-68
2022/10/16 09:25:39;;;;;;;4.82;4.38;;;14.40;99.90;;;;;;6141014;29;20299;-67
2022/10/16 09:28:44;;;;;;;4.03;3.70;;;14.40;99.90;;;;;;6141081;29;20298;-68
2022/10/16 09:31:51;;;;;;;8.15;4.07;;;14.50;99.90;;;;;;6141338;29;20279;-68
2022/10/16 09:34:57;;;;;;;3.75;3.55;;;14.50;99.90;;;;;;6140348;29;20299;-68
2022/10/16 09:38:02;;;;;;;4.20;3.72;;;14.60;99.90;;;;;;6124316;29;20274;-68
2022/10/16 09:41:19;;;;;;;3.78;3.45;;;14.60;99.90;;;;;;6140562;29;20452;-67
2022/10/16 09:44:28;;;;;;;5.10;3.60;;;14.50;99.90;;;;;;6140813;29;20485;-68
2022/10/16 09:47:42;;;;;;;3.72;3.53;;;14.60;99.90;;;;;;6141200;29;20267;-67
2022/10/16 09:50:57;;;;;;;4.45;3.65;;;14.50;99.90;;;;;;6140428;29;20311;-67
2022/10/16 09:54:15;;;;;;;3.67;3.45;;;14.60;99.90;;;;;;6140287;29;20302;-68
2022/10/16 09:57:20;;;;;;;4.32;3.70;;;14.70;99.90;;;;;;6140495;29;20275;-67
2022/10/16 10:00:26;;;;;;;5.55;3.58;;;14.70;99.90;;;;;;6140572;29;20303;-67
2022/10/16 10:03:41;;;;;;;5.15;3.65;;;14.70;99.90;;;;;;6140120;29;20472;-67
2022/10/16 10:06:47;;;;;;;9.10;3.65;;;14.60;99.90;;;;;;6140413;29;20296;-67
2022/10/16 10:09:52;;;;;;;4.40;3.92;;;14.60;99.90;;;;;;6140048;29;20295;-67
2022/10/16 10:12:58;;;;;;;10.95;4.38;;;14.60;99.90;;;;;;6121237;29;20272;-67
2022/10/16 10:16:03;;;;;;;7.18;3.60;;;14.60;99.90;;;;;;6115999;29;20296;-67
2022/10/16 10:19:16;;;;;;;6.72;3.75;;;14.60;99.90;;;;;;6116178;29;20308;-68
2022/10/16 10:22:31;;;;;;;3.58;3.28;;;14.70;99.90;;;;;;6116956;29;20275;-68
2022/10/16 10:25:49;;;;;;;6.95;3.47;;;14.70;99.90;;;;;;6116166;29;20490;-68
2022/10/16 10:29:00;;;;;;;3.85;3.65;;;14.70;99.90;;;;;;6115842;29;20295;-68
2022/10/16 10:32:19;;;;;;;6.18;3.30;;;14.80;99.90;;;;;;6116950;29;20280;-68
2022/10/16 10:35:33;;;;;;;3.50;3.20;;;14.80;99.90;;;;;;6116195;29;20299;-68
2022/10/16 10:38:47;;;;;;;7.40;3.30;;;14.80;99.90;;;;;;6116365;29;20291;-68
2022/10/16 10:42:19;;;;;;;3.97;3.08;;;14.80;99.90;;;;;;6116397;29;20268;-68
2022/10/16 10:45:29;;;;;;;3.20;2.97;;;14.80;99.90;;;;;;6116372;29;20616;-68
2022/10/16 10:48:59;;;;;;;4.35;2.83;;;14.90;99.90;;;;;;6116012;29;20607;-68
2022/10/16 10:52:27;;;;;;;3.70;3.00;;;14.90;99.90;;;;;;6116650;29;20267;-68
2022/10/16 10:55:41;;;;;;;6.53;2.58;;;15.00;99.90;;;;;;6116001;29;20323;-68
2022/10/16 10:59:16;;;;;;;7.07;2.67;;;14.90;99.90;;;;;;6108687;29;20292;-68
2022/10/16 11:02:27;;;;;;;3.20;2.80;;;15.00;99.90;;;;;;6116638;29;20461;-68
2022/10/16 11:05:43;;;;;;;4.22;3.03;;;15.00;99.90;;;;;;6115660;29;20309;-68
2022/10/16 11:08:53;;;;;;;11.43;3.10;;;14.90;99.90;;;;;;6115940;29;20295;-68
2022/10/16 11:12:09;;;;;;;2.72;2.60;;;15.00;99.90;;;;;;6128638;29;20264;-68
2022/10/16 11:15:18;;;;;;;3.38;2.70;;;15.00;99.90;;;;;;6139578;29;20583;-68
2022/10/16 11:18:27;;;;;;;3.08;2.72;;;15.00;99.90;;;;;;6143534;29;20303;-68
2022/10/16 11:21:37;;;;;;;8.35;2.63;;;15.10;99.90;;;;;;6144081;29;20467;-68
2022/10/16 11:24:50;;;;;;;3.10;2.85;;;15.10;99.90;;;;;;6136040;29;20298;-68
2022/10/16 11:28:02;;;;;;;7.03;2.95;;;15.10;99.90;;;;;;6144432;29;20275;-68
2022/10/16 11:31:12;;;;;;;6.22;2.85;;;15.20;99.90;;;;;;6143010;29;20271;-68
2022/10/16 11:34:23;;;;;;;2.45;2.25;;;15.30;99.90;;;;;;6143581;29;20299;-68
2022/10/16 11:37:33;;;;;;;6.93;2.60;;;15.20;99.90;;;;;;6144337;29;20272;-68
2022/10/16 11:40:42;;;;;;;2.50;2.30;;;15.20;99.90;;;;;;6143740;29;20295;-68
2022/10/16 11:43:57;;;;;;;7.05;2.60;;;15.30;99.90;;;;;;6143466;29;20291;-68
2022/10/16 11:47:13;;;;;;;6.35;2.83;;;15.30;99.90;;;;;;6144181;29;20275;-68
2022/10/16 11:50:44;;;;;;;4.80;2.70;;;15.30;99.90;;;;;;6143409;29;20458;-68
2022/10/16 11:53:56;;;;;;;5.03;2.80;;;15.20;99.90;;;;;;6143271;29;20291;-68
2022/10/16 11:57:10;;;;;;;2.88;2.63;;;15.20;99.90;;;;;;6143842;29;20468;-68
2022/10/16 12:00:22;;;;;;;5.72;2.63;;;15.10;99.90;;;;;;6143306;29;20399;-66
2022/10/16 12:03:31;;;;;;;4.68;2.58;;;15.10;99.90;;;;;;6142753;29;20291;-67
2022/10/16 12:06:41;;;;;;;2.47;2.28;;;15.10;99.90;;;;;;6143304;29;20299;-67
2022/10/16 12:09:46;;;;;;;5.78;3.03;;;15.20;99.90;;;;;;6135373;29;20299;-68
2022/10/16 12:12:53;;;;;;;4.28;3.47;;;15.20;99.90;;;;;;6124690;29;20268;-67
2022/10/16 12:16:08;;;;;;;4.25;3.42;;;15.20;99.90;;;;;;6118979;29;20300;-68
2022/10/16 12:19:16;;;;;;;7.10;3.00;;;15.10;99.90;;;;;;6119155;29;20299;-68
2022/10/16 12:22:20;;;;;;;6.32;3.22;;;15.10;99.90;;;;;;6119428;29;20268;-67
2022/10/16 12:25:29;;;;;;;3.55;3.30;;;15.20;99.90;;;;;;6118938;29;20303;-67
2022/10/16 12:28:36;;;;;;;5.05;3.58;;;15.20;99.90;;;;;;6117546;29;20316;-67
2022/10/16 12:31:48;;;;;;;3.72;3.40;;;15.30;99.90;;;;;;6118911;29;20271;-67
2022/10/16 12:35:01;;;;;;;4.20;3.13;;;15.20;99.90;;;;;;6118847;29;20303;-67
2022/10/16 12:38:15;;;;;;;3.22;2.92;;;15.20;99.90;;;;;;6118682;29;20272;-67
2022/10/16 12:41:27;;;;;;;2.72;2.67;;;15.10;99.90;;;;;;6119055;29;20267;-66
2022/10/16 12:44:37;;;;;;;3.08;2.88;;;15.20;99.90;;;;;;6118364;29;20312;-66
2022/10/16 12:47:51;;;;;;;2.58;2.38;;;15.20;99.90;;;;;;6118796;29;20276;-67
2022/10/16 12:50:56;;;;;;;5.13;2.40;;;15.20;99.90;;;;;;6118366;29;20591;-67
2022/10/16 12:54:02;;;;;;;2.42;2.30;;;15.30;99.90;;;;;;6117987;29;20296;-67
2022/10/16 12:57:27;;;;;;;2.60;2.45;;;15.10;99.90;;;;;;6118668;29;20292;-67
2022/10/16 13:00:44;;;;;;;2.72;2.40;;;15.10;99.90;;;;;;6117917;29;20312;-67
2022/10/16 13:04:21;;;;;;;2.38;2.10;;;15.10;99.90;;;;;;6117779;29;20288;-68
2022/10/16 13:07:42;;;;;;;2.45;2.28;;;15.10;99.90;;;;;;6088399;29;20304;-68
2022/10/16 13:11:01;;;;;;;3.78;3.20;;;15.10;99.90;;;;;;6120150;29;20575;-69
2022/10/16 13:14:30;;;;;;;3.63;2.30;;;15.00;99.90;;;;;;6141101;29;20295;-68
2022/10/16 13:17:44;;;;;;;2.35;2.15;;;15.10;99.90;;;;;;6141938;29;20314;-69
2022/10/16 13:21:08;;;;;;;2.72;2.30;;;15.10;99.90;;;;;;6141245;29;20608;-68
2022/10/16 13:24:24;;;;;;;3.88;2.40;;;15.00;99.90;;;;;;6141244;29;20310;-68
2022/10/16 13:27:38;;;;;;;2.08;1.98;;;15.10;99.90;;;;;;6141172;29;20276;-68
2022/10/16 13:30:45;;;;;;;3.15;2.22;;;15.10;99.90;;;;;;6140855;29;20310;-69
2022/10/16 13:33:54;;;;;;;3.67;2.30;;;15.10;99.90;;;;;;6141238;29;20602;-67
2022/10/16 13:36:59;;;;;;;2.97;2.75;;;15.20;99.90;;;;;;6141374;29;20291;-67
2022/10/16 13:40:18;;;;;;;3.20;2.40;;;15.20;99.90;;;;;;6140595;29;20295;-67
2022/10/16 13:43:27;;;;;;;2.65;2.45;;;15.10;99.90;;;;;;6140814;29;20306;-69
2022/10/16 13:46:34;;;;;;;2.15;1.90;;;15.20;99.90;;;;;;6140867;29;20275;-68
2022/10/16 13:49:40;;;;;;;2.20;2.10;;;15.10;99.90;;;;;;6140537;29;20306;-69
2022/10/16 13:52:45;;;;;;;5.60;2.58;;;15.10;99.90;;;;;;6141283;29;20268;-69
2022/10/16 13:55:50;;;;;;;3.60;2.35;;;15.10;99.90;;;;;;6140434;29;20299;-68
2022/10/16 13:59:01;;;;;;;3.40;2.28;;;15.10;99.90;;;;;;6140418;29;20286;-69
2022/10/16 14:02:21;;;;;;;2.88;2.35;;;15.00;99.90;;;;;;6141232;29;20271;-68
2022/10/16 14:05:28;;;;;;;2.22;2.03;;;15.00;99.90;;;;;;6140536;29;20299;-69
2022/10/16 14:08:33;;;;;;;2.00;1.90;;;15.00;99.90;;;;;;6140138;29;20299;-69
2022/10/16 14:11:45;;;;;;;3.60;2.17;;;14.90;99.90;;;;;;6131430;29;20528;-67
2022/10/16 14:14:53;;;;;;;1.80;1.80;;;14.90;99.90;;;;;;6116720;29;20304;-67
2022/10/16 14:17:59;;;;;;;4.00;2.47;;;15.00;99.90;;;;;;6116980;29;20636;-67
2022/10/16 14:21:08;;;;;;;2.83;2.70;;;15.00;99.90;;;;;;6115802;29;20289;-68
2022/10/16 14:24:13;;;;;;;3.90;2.33;;;14.90;99.90;;;;;;6116363;29;20300;-68
2022/10/16 14:27:32;;;;;;;4.22;1.85;;;14.80;99.90;;;;;;6116431;29;20275;-68
2022/10/16 14:30:37;;;;;;;2.33;2.08;;;14.80;99.90;;;;;;6116323;29;20296;-68
2022/10/16 14:33:42;;;;;;;4.65;2.28;;;14.80;99.90;;;;;;6116568;29;20295;-66
2022/10/16 14:36:49;;;;;;;4.07;2.30;;;14.60;99.90;;;;;;6100103;29;20287;-67
2022/10/16 14:39:54;;;;;;;2.53;2.03;;;14.60;99.90;;;;;;6116538;29;20299;-67
2022/10/16 14:43:00;;;;;;;2.60;2.40;;;14.60;99.90;;;;;;6116543;29;20271;-68
2022/10/16 14:46:10;;;;;;;5.72;2.10;;;14.50;99.90;;;;;;6115888;29;20276;-67
2022/10/16 14:49:19;;;;;;;4.20;2.42;;;14.50;99.90;;;;;;6116237;29;20304;-67
2022/10/16 14:52:26;;;;;;;2.47;2.22;;;14.50;99.90;;;;;;6119462;29;20272;-67
2022/10/16 14:55:30;;;;;;;2.33;2.20;;;14.40;99.90;;;;;;6120826;29;20295;-67
2022/10/16 14:58:36;;;;;;;5.85;2.22;;;14.50;99.90;;;;;;6120783;29;20291;-66
2022/10/16 15:01:42;;;;;;;2.75;2.10;;;14.40;99.90;;;;;;6104680;29;20271;-66
2022/10/16 15:04:47;;;;;;;5.97;2.42;;;14.40;99.90;;;;;;6113498;29;20299;-67
2022/10/16 15:07:54;;;;;;;5.53;2.03;;;14.40;99.90;;;;;;6120593;29;20491;-68
2022/10/16 15:11:00;;;;;;;8.15;2.80;;;14.40;99.90;;;;;;6124390;29;20474;-66
2022/10/16 15:14:05;;;;;;;6.18;2.45;;;14.40;99.90;;;;;;6144141;29;20472;-67
2022/10/16 15:17:12;;;;;;;3.65;3.05;;;14.40;99.90;;;;;;6143567;29;20299;-69
2022/10/16 15:20:19;;;;;;;4.80;3.08;;;14.40;99.90;;;;;;6144360;29;20303;-69
2022/10/16 15:23:25;;;;;;;6.68;2.85;;;14.40;99.90;;;;;;6143878;29;20299;-68
2022/10/16 15:26:35;;;;;;;4.90;3.03;;;14.40;99.90;;;;;;6144480;29;20267;-67
2022/10/16 15:29:40;;;;;;;5.15;3.08;;;14.40;99.90;;;;;;6143990;29;20299;-67
2022/10/16 15:32:45;;;;;;;3.33;1.77;;;14.10;99.90;;;;;;6144406;29;20266;-68
2022/10/16 15:35:52;;;;;;;3.70;1.63;;;13.70;99.90;;;;;;6143488;29;20302;-67
2022/10/16 15:38:59;;;;;;;1.33;1.30;;;13.60;99.90;;;;;;6143532;29;20315;-68
2022/10/16 15:42:05;;;;;;;4.03;1.70;;;13.40;99.90;;;;;;6144022;29;20293;-68
2022/10/16 15:45:12;;;;;;;2.05;1.15;;;13.30;99.90;;;;;;6143420;29;20310;-67
2022/10/16 15:48:18;;;;;;;1.40;1.08;;;13.10;99.90;;;;;;6143061;29;20278;-68
2022/10/16 15:51:23;;;;;;;2.17;1.23;;;13.10;99.90;;;;;;6143761;29;20275;-67
2022/10/16 15:54:29;;;;;;;1.65;1.20;;;13.10;99.90;;;;;;6143329;29;20303;-67
2022/10/16 15:57:34;;;;;;;1.70;1.60;;;13.00;99.90;;;;;;6143682;29;20299;-67
2022/10/16 16:00:39;;;;;;;3.38;1.40;;;12.90;99.90;;;;;;6143131;29;20575;-68
2022/10/16 16:03:44;;;;;;;2.08;1.33;;;12.90;99.90;;;;;;6142789;29;20594;-67
2022/10/16 16:06:49;;;;;;;1.60;1.40;;;12.70;99.90;;;;;;6142814;29;20302;-68
2022/10/16 16:09:55;;;;;;;1.88;1.60;;;12.80;99.90;;;;;;6142991;29;20587;-67
2022/10/16 16:13:00;;;;;;;2.38;1.60;;;12.80;99.90;;;;;;6123506;29;20264;-67
2022/10/16 16:16:08;;;;;;;1.90;1.80;;;12.60;99.90;;;;;;6118857;29;20277;-68
2022/10/16 16:19:13;;;;;;;2.67;1.50;;;12.60;99.90;;;;;;6118931;29;20303;-68